Katlin Olivia — WCY6622 — position and weather

sailwx.info

Track history (hours):
 
Tides and Currents Weather Stations Pressure Air Temp Water Temp Dewpoint Dewpoint Depression Visibility Wind Speed Wind Dir Waves Ship Positions

Katlin Olivia

Owner: LA CARRIERS, INC., CUT OFF, LA. More information available from US FCC via Universal Licensing System and Coast Guard Vessel Documentation Center.

Last reported at 2017-Sep-20 00:27 UTC. Time now 2017-Sep-23 03:50 UTC.
Position N 27°43' W 082°33'.

; draft 3 m.

Type: Towing. MMSI: 367005970.

Date/timePositionNaut miles runAvg speedWind from/ knotsBaromVisibWave heightAir tempDewpointWater temp
2017-Sep-20 00:27N 27°43' W 082°33'3 6.0
2017-Sep-20 00:00N 27°45' W 082°32'3 5.1
2017-Sep-19 23:30N 27°48' W 082°30'3 5.9
2017-Sep-19 22:57N 27°49' W 082°27'3 5.9
2017-Sep-19 22:30N 27°52' W 082°27'3 5.1
2017-Sep-19 22:00N 27°54' W 082°26'0 0.2
2017-Sep-19 21:30N 27°54' W 082°26'0 0.0
2017-Sep-19 21:00N 27°54' W 082°26'0 0.2
2017-Sep-19 20:31N 27°54' W 082°26'0 0.0
2017-Sep-19 20:01N 27°54' W 082°26'0 0.0
2017-Sep-19 19:31N 27°54' W 082°26'0 0.0
2017-Sep-19 19:00N 27°54' W 082°26'0 0.0
2017-Sep-19 18:30N 27°54' W 082°26'0 0.0
2017-Sep-19 18:00N 27°54' W 082°26'0 0.0
2017-Sep-19 17:30N 27°54' W 082°26'0 0.0
2017-Sep-19 17:00N 27°54' W 082°26'0 0.2
2017-Sep-19 16:31N 27°54' W 082°26'0 0.2
2017-Sep-19 16:01N 27°54' W 082°26'0 0.0
2017-Sep-19 15:31N 27°54' W 082°26'0 0.0
2017-Sep-19 15:00N 27°54' W 082°26'0 0.0
2017-Sep-19 14:30N 27°54' W 082°26'0 0.0
2017-Sep-19 14:00N 27°54' W 082°26'0 0.0
2017-Sep-19 13:30N 27°54' W 082°26'0 0.0
2017-Sep-19 13:01N 27°54' W 082°26'0 0.0
2017-Sep-19 12:30N 27°54' W 082°26'0 0.0
2017-Sep-19 12:00N 27°54' W 082°26'0 0.0
2017-Sep-19 11:30N 27°54' W 082°26'0 0.1
2017-Sep-19 11:00N 27°54' W 082°26'0 0.0
2017-Sep-19 10:30N 27°54' W 082°26'0 0.0
2017-Sep-19 10:01N 27°54' W 082°26'0 0.0
2017-Sep-19 09:30N 27°54' W 082°26'0 0.0
2017-Sep-19 09:00N 27°54' W 082°26'0 0.0
2017-Sep-19 08:30N 27°54' W 082°26'0 0.0
2017-Sep-19 08:00N 27°54' W 082°26'0 0.0
2017-Sep-19 07:30N 27°54' W 082°26'0 0.0
2017-Sep-19 07:00N 27°54' W 082°26'0 0.0
2017-Sep-19 06:30N 27°54' W 082°26'0 0.0
2017-Sep-19 06:00N 27°54' W 082°26'0 0.0
2017-Sep-19 05:30N 27°54' W 082°26'0 0.0
2017-Sep-19 05:00N 27°54' W 082°26'0 0.0
2017-Sep-19 04:30N 27°54' W 082°26'0 0.0
2017-Sep-19 04:01N 27°54' W 082°26'0 0.0
2017-Sep-19 03:31N 27°54' W 082°26'0 0.0
2017-Sep-19 03:00N 27°54' W 082°26'0 0.0
2017-Sep-19 02:30N 27°54' W 082°26'0 0.0
2017-Sep-19 02:00N 27°54' W 082°26'0 0.0
2017-Sep-19 01:31N 27°54' W 082°26'0 0.0
2017-Sep-19 01:01N 27°54' W 082°26'1 1.1
2017-Sep-19 00:31N 27°54' W 082°25'1 1.2
2017-Sep-19 00:00N 27°54' W 082°26'1 1.2
2017-Sep-18 23:31N 27°54' W 082°25'0 0.1
2017-Sep-18 23:01N 27°54' W 082°25'0 0.0
2017-Sep-18 22:30N 27°54' W 082°25'0 0.0
2017-Sep-18 22:00N 27°54' W 082°25'0 0.0
2017-Sep-18 21:30N 27°54' W 082°25'0 0.0
2017-Sep-18 21:00N 27°54' W 082°25'0 0.0
2017-Sep-18 20:31N 27°54' W 082°25'0 0.0
2017-Sep-18 20:01N 27°54' W 082°25'0 0.1
2017-Sep-18 19:30N 27°54' W 082°25'0 0.1
2017-Sep-18 19:01N 27°54' W 082°25'0 0.0
2017-Sep-18 18:31N 27°54' W 082°25'0 0.0
2017-Sep-18 18:01N 27°54' W 082°25'0 0.1
2017-Sep-18 17:30N 27°54' W 082°25'0 0.1
2017-Sep-18 17:00N 27°54' W 082°25'0 0.0
2017-Sep-18 16:31N 27°54' W 082°25'0 0.0
2017-Sep-18 16:00N 27°54' W 082°25'0 0.0
2017-Sep-18 15:30N 27°54' W 082°25'0 0.0
2017-Sep-18 15:01N 27°54' W 082°25'0 0.0
2017-Sep-18 14:30N 27°54' W 082°25'0 0.0
2017-Sep-18 14:01N 27°54' W 082°25'0 0.0
2017-Sep-18 13:30N 27°54' W 082°25'0 0.1
2017-Sep-18 13:00N 27°54' W 082°25'0 0.1
2017-Sep-18 12:30N 27°54' W 082°25'0 0.2
2017-Sep-18 12:00N 27°54' W 082°25'0 0.1
2017-Sep-18 11:30N 27°54' W 082°25'0 0.2
2017-Sep-18 11:00N 27°54' W 082°25'1 1.1
2017-Sep-18 10:30N 27°54' W 082°26'1 2.3
2017-Sep-18 10:00N 27°53' W 082°26'3 5.0
2017-Sep-18 09:28N 27°51' W 082°27'2 4.8
2017-Sep-18 09:00N 27°48' W 082°27'3 5.3
2017-Sep-18 08:31N 27°48' W 082°30'  
2017-Sep-13 14:11N 27°44' W 082°32'1 5.8
2017-Sep-13 14:00N 27°45' W 082°32'2 5.0
2017-Sep-13 13:30N 27°47' W 082°30'3 5.6
2017-Sep-13 12:59N 27°48' W 082°27'3 5.2
2017-Sep-13 12:30N 27°51' W 082°27'3 5.3
2017-Sep-13 12:00N 27°53' W 082°26'1 2.6
2017-Sep-13 11:30N 27°54' W 082°25'0 0.1
2017-Sep-13 11:00N 27°54' W 082°25'0 0.0
2017-Sep-13 10:31N 27°54' W 082°25'0 0.0
2017-Sep-13 10:00N 27°54' W 082°25'0 0.0
2017-Sep-13 09:31N 27°54' W 082°25'0 0.0
2017-Sep-13 09:01N 27°54' W 082°25'0 0.0
2017-Sep-13 08:30N 27°54' W 082°25'0 0.0
2017-Sep-13 08:01N 27°54' W 082°25'0 0.0
2017-Sep-13 07:31N 27°54' W 082°25'0 0.0
2017-Sep-13 07:00N 27°54' W 082°25'0 0.0
2017-Sep-13 06:31N 27°54' W 082°25'0 0.0
2017-Sep-13 06:01N 27°54' W 082°25'0 0.0
2017-Sep-13 05:31N 27°54' W 082°25'0 0.0
2017-Sep-13 05:00N 27°54' W 082°25'0 0.0
2017-Sep-13 04:30N 27°54' W 082°25'0 0.0
2017-Sep-13 04:00N 27°54' W 082°25'0 0.0
2017-Sep-13 03:31N 27°54' W 082°25'0 0.0
2017-Sep-13 03:00N 27°54' W 082°25'0 0.0
2017-Sep-13 02:30N 27°54' W 082°25'0 0.0
2017-Sep-13 02:00N 27°54' W 082°25'0 0.0
2017-Sep-13 01:30N 27°54' W 082°25'0 0.0
2017-Sep-13 01:01N 27°54' W 082°25'0 0.6
2017-Sep-13 00:30N 27°54' W 082°26'0 0.0
2017-Sep-13 00:01N 27°54' W 082°26'0 0.0
2017-Sep-12 23:31N 27°54' W 082°26'0 0.0
2017-Sep-12 23:00N 27°54' W 082°26'0 0.0
2017-Sep-12 22:30N 27°54' W 082°26'0 0.0
2017-Sep-12 22:00N 27°54' W 082°26'0 0.0
2017-Sep-12 21:30N 27°54' W 082°26'0 0.0
2017-Sep-12 21:00N 27°54' W 082°26'0 0.0
2017-Sep-12 20:30N 27°54' W 082°26'0 0.0
2017-Sep-12 20:00N 27°54' W 082°26'0 0.0
2017-Sep-12 19:31N 27°54' W 082°26'0 0.1
2017-Sep-12 19:01N 27°54' W 082°26'0 0.1
2017-Sep-12 18:30N 27°54' W 082°26'0 0.7
2017-Sep-12 18:00N 27°54' W 082°25'0 0.0
2017-Sep-12 17:30N 27°54' W 082°25'0 0.0
2017-Sep-12 13:26N 27°54' W 082°25'0 0.0
2017-Sep-12 13:00N 27°54' W 082°25'0 0.0
2017-Sep-12 12:31N 27°54' W 082°25'0 0.0
2017-Sep-12 12:00N 27°54' W 082°25'  
Track history (hours):
 
Tides and Currents Weather Stations Pressure Air Temp Water Temp Dewpoint Dewpoint Depression Visibility Wind Speed Wind Dir Waves Ship Positions

Katlin Olivia

Owner: LA CARRIERS, INC., CUT OFF, LA. More information available from US FCC via Universal Licensing System and Coast Guard Vessel Documentation Center.

Last reported at 2017-Sep-20 00:27 UTC. Time now 2017-Sep-23 03:50 UTC.
Position N 27°43' W 082°33'.

; draft 3 m.

Type: Towing. MMSI: 367005970.

Date/timePositionNaut miles runAvg speedWind from/ knotsBaromVisibWave heightAir tempDewpointWater temp
2017-Sep-20 00:27N 27°43' W 082°33'3 6.0
2017-Sep-20 00:00N 27°45' W 082°32'3 5.1
2017-Sep-19 23:30N 27°48' W 082°30'3 5.9
2017-Sep-19 22:57N 27°49' W 082°27'3 5.9
2017-Sep-19 22:30N 27°52' W 082°27'3 5.1
2017-Sep-19 22:00N 27°54' W 082°26'0 0.2
2017-Sep-19 21:30N 27°54' W 082°26'0 0.0
2017-Sep-19 21:00N 27°54' W 082°26'0 0.2
2017-Sep-19 20:31N 27°54' W 082°26'0 0.0
2017-Sep-19 20:01N 27°54' W 082°26'0 0.0
2017-Sep-19 19:31N 27°54' W 082°26'0 0.0
2017-Sep-19 19:00N 27°54' W 082°26'0 0.0
2017-Sep-19 18:30N 27°54' W 082°26'0 0.0
2017-Sep-19 18:00N 27°54' W 082°26'0 0.0
2017-Sep-19 17:30N 27°54' W 082°26'0 0.0
2017-Sep-19 17:00N 27°54' W 082°26'0 0.2
2017-Sep-19 16:31N 27°54' W 082°26'0 0.2
2017-Sep-19 16:01N 27°54' W 082°26'0 0.0
2017-Sep-19 15:31N 27°54' W 082°26'0 0.0
2017-Sep-19 15:00N 27°54' W 082°26'0 0.0
2017-Sep-19 14:30N 27°54' W 082°26'0 0.0
2017-Sep-19 14:00N 27°54' W 082°26'0 0.0
2017-Sep-19 13:30N 27°54' W 082°26'0 0.0
2017-Sep-19 13:01N 27°54' W 082°26'0 0.0
2017-Sep-19 12:30N 27°54' W 082°26'0 0.0
2017-Sep-19 12:00N 27°54' W 082°26'0 0.0
2017-Sep-19 11:30N 27°54' W 082°26'0 0.1
2017-Sep-19 11:00N 27°54' W 082°26'0 0.0
2017-Sep-19 10:30N 27°54' W 082°26'0 0.0
2017-Sep-19 10:01N 27°54' W 082°26'0 0.0
2017-Sep-19 09:30N 27°54' W 082°26'0 0.0
2017-Sep-19 09:00N 27°54' W 082°26'0 0.0
2017-Sep-19 08:30N 27°54' W 082°26'0 0.0
2017-Sep-19 08:00N 27°54' W 082°26'0 0.0
2017-Sep-19 07:30N 27°54' W 082°26'0 0.0
2017-Sep-19 07:00N 27°54' W 082°26'0 0.0
2017-Sep-19 06:30N 27°54' W 082°26'0 0.0
2017-Sep-19 06:00N 27°54' W 082°26'0 0.0
2017-Sep-19 05:30N 27°54' W 082°26'0 0.0
2017-Sep-19 05:00N 27°54' W 082°26'0 0.0
2017-Sep-19 04:30N 27°54' W 082°26'0 0.0
2017-Sep-19 04:01N 27°54' W 082°26'0 0.0
2017-Sep-19 03:31N 27°54' W 082°26'0 0.0
2017-Sep-19 03:00N 27°54' W 082°26'0 0.0
2017-Sep-19 02:30N 27°54' W 082°26'0 0.0
2017-Sep-19 02:00N 27°54' W 082°26'0 0.0
2017-Sep-19 01:31N 27°54' W 082°26'0 0.0
2017-Sep-19 01:01N 27°54' W 082°26'1 1.1
2017-Sep-19 00:31N 27°54' W 082°25'1 1.2
2017-Sep-19 00:00N 27°54' W 082°26'1 1.2
2017-Sep-18 23:31N 27°54' W 082°25'0 0.1
2017-Sep-18 23:01N 27°54' W 082°25'0 0.0
2017-Sep-18 22:30N 27°54' W 082°25'0 0.0
2017-Sep-18 22:00N 27°54' W 082°25'0 0.0
2017-Sep-18 21:30N 27°54' W 082°25'0 0.0
2017-Sep-18 21:00N 27°54' W 082°25'0 0.0
2017-Sep-18 20:31N 27°54' W 082°25'0 0.0
2017-Sep-18 20:01N 27°54' W 082°25'0 0.1
2017-Sep-18 19:30N 27°54' W 082°25'0 0.1
2017-Sep-18 19:01N 27°54' W 082°25'0 0.0
2017-Sep-18 18:31N 27°54' W 082°25'0 0.0
2017-Sep-18 18:01N 27°54' W 082°25'0 0.1
2017-Sep-18 17:30N 27°54' W 082°25'0 0.1
2017-Sep-18 17:00N 27°54' W 082°25'0 0.0
2017-Sep-18 16:31N 27°54' W 082°25'0 0.0
2017-Sep-18 16:00N 27°54' W 082°25'0 0.0
2017-Sep-18 15:30N 27°54' W 082°25'0 0.0
2017-Sep-18 15:01N 27°54' W 082°25'0 0.0
2017-Sep-18 14:30N 27°54' W 082°25'0 0.0
2017-Sep-18 14:01N 27°54' W 082°25'0 0.0
2017-Sep-18 13:30N 27°54' W 082°25'0 0.1
2017-Sep-18 13:00N 27°54' W 082°25'0 0.1
2017-Sep-18 12:30N 27°54' W 082°25'0 0.2
2017-Sep-18 12:00N 27°54' W 082°25'0 0.1
2017-Sep-18 11:30N 27°54' W 082°25'0 0.2
2017-Sep-18 11:00N 27°54' W 082°25'1 1.1
2017-Sep-18 10:30N 27°54' W 082°26'1 2.3
2017-Sep-18 10:00N 27°53' W 082°26'3 5.0
2017-Sep-18 09:28N 27°51' W 082°27'2 4.8
2017-Sep-18 09:00N 27°48' W 082°27'3 5.3
2017-Sep-18 08:31N 27°48' W 082°30'  
2017-Sep-13 14:11N 27°44' W 082°32'1 5.8
2017-Sep-13 14:00N 27°45' W 082°32'2 5.0
2017-Sep-13 13:30N 27°47' W 082°30'3 5.6
2017-Sep-13 12:59N 27°48' W 082°27'3 5.2
2017-Sep-13 12:30N 27°51' W 082°27'3 5.3
2017-Sep-13 12:00N 27°53' W 082°26'1 2.6
2017-Sep-13 11:30N 27°54' W 082°25'0 0.1
2017-Sep-13 11:00N 27°54' W 082°25'0 0.0
2017-Sep-13 10:31N 27°54' W 082°25'0 0.0
2017-Sep-13 10:00N 27°54' W 082°25'0 0.0
2017-Sep-13 09:31N 27°54' W 082°25'0 0.0
2017-Sep-13 09:01N 27°54' W 082°25'0 0.0
2017-Sep-13 08:30N 27°54' W 082°25'0 0.0
2017-Sep-13 08:01N 27°54' W 082°25'0 0.0
2017-Sep-13 07:31N 27°54' W 082°25'0 0.0
2017-Sep-13 07:00N 27°54' W 082°25'0 0.0
2017-Sep-13 06:31N 27°54' W 082°25'0 0.0
2017-Sep-13 06:01N 27°54' W 082°25'0 0.0
2017-Sep-13 05:31N 27°54' W 082°25'0 0.0
2017-Sep-13 05:00N 27°54' W 082°25'0 0.0
2017-Sep-13 04:30N 27°54' W 082°25'0 0.0
2017-Sep-13 04:00N 27°54' W 082°25'0 0.0
2017-Sep-13 03:31N 27°54' W 082°25'0 0.0
2017-Sep-13 03:00N 27°54' W 082°25'0 0.0
2017-Sep-13 02:30N 27°54' W 082°25'0 0.0
2017-Sep-13 02:00N 27°54' W 082°25'0 0.0
2017-Sep-13 01:30N 27°54' W 082°25'0 0.0
2017-Sep-13 01:01N 27°54' W 082°25'0 0.6
2017-Sep-13 00:30N 27°54' W 082°26'0 0.0
2017-Sep-13 00:01N 27°54' W 082°26'0 0.0
2017-Sep-12 23:31N 27°54' W 082°26'0 0.0
2017-Sep-12 23:00N 27°54' W 082°26'0 0.0
2017-Sep-12 22:30N 27°54' W 082°26'0 0.0
2017-Sep-12 22:00N 27°54' W 082°26'0 0.0
2017-Sep-12 21:30N 27°54' W 082°26'0 0.0
2017-Sep-12 21:00N 27°54' W 082°26'0 0.0
2017-Sep-12 20:30N 27°54' W 082°26'0 0.0
2017-Sep-12 20:00N 27°54' W 082°26'0 0.0
2017-Sep-12 19:31N 27°54' W 082°26'0 0.1
2017-Sep-12 19:01N 27°54' W 082°26'0 0.1
2017-Sep-12 18:30N 27°54' W 082°26'0 0.7
2017-Sep-12 18:00N 27°54' W 082°25'0 0.0
2017-Sep-12 17:30N 27°54' W 082°25'0 0.0
2017-Sep-12 13:26N 27°54' W 082°25'0 0.0
2017-Sep-12 13:00N 27°54' W 082°25'0 0.0
2017-Sep-12 12:31N 27°54' W 082°25'0 0.0
2017-Sep-12 12:00N 27°54' W 082°25'  

Dump ship's entire track history